Terminal Aerodrome Forecast
Issued by NWS

Home | Current Version | Previous Version | Graphics & Text | Print | Product List | Glossary On
Versions: 1 2 3 4 5 6 7 8 9 10 11 12 13 14 15 16 17
624
FTUS43 KABR 141059 AAA
TAFMBG
TAF AMD
KMBG 141059Z 1411/1506 VRB06KT P6SM BKN025 OVC035
      TEMPO 1411/1415 5SM -SN OVC010
     FM141700 34018G25KT P6SM BKN025=

USA.gov is the U.S. government's official web portal to all federal, state and local government web resources and services.